createdAt,value
2024-02-27T00:02:23.323Z,99941.00
2024-02-27T00:04:50.309Z,99940.63
2024-02-27T00:07:17.463Z,99949.44
2024-02-27T00:09:45.686Z,99950.88
2024-02-27T00:12:12.667Z,99959.72
2024-02-27T00:14:39.699Z,99961.13
2024-02-27T00:17:06.654Z,99964.19
2024-02-27T00:19:33.687Z,99974.66
2024-02-27T00:22:00.658Z,99970.75
2024-02-27T00:24:27.608Z,99982.44
2024-02-27T00:26:54.726Z,99983.28
2024-02-27T00:29:22.964Z,99992.28
2024-02-27T00:31:49.928Z,99997.00
2024-02-27T00:34:17.378Z,99994.97
2024-02-27T00:36:44.550Z,99999.50
2024-02-27T00:39:11.733Z,100005.84
2024-02-27T00:41:42.536Z,100004.81
2024-02-27T00:44:11.253Z,99999.50
2024-02-27T00:46:38.992Z,100008.28
2024-02-27T00:49:06.262Z,100003.19
2024-02-27T00:51:33.389Z,100004.63
2024-02-27T00:54:00.841Z,100004.63
2024-02-27T00:56:28.003Z,99999.72
2024-02-27T00:58:54.926Z,99998.69
2024-02-27T01:01:21.790Z,99992.94
2024-02-27T01:03:48.894Z,99981.03
2024-02-27T01:06:16.043Z,99994.75
2024-02-27T01:08:43.136Z,99989.22
2024-02-27T01:11:10.110Z,99988.41
2024-02-27T01:13:37.211Z,99993.53
2024-02-27T01:16:04.620Z,100004.03
2024-02-27T01:18:31.813Z,100001.56
2024-02-27T01:20:59.651Z,100004.84
2024-02-27T01:23:26.920Z,100006.47
2024-02-27T01:25:53.823Z,100006.28
2024-02-27T01:28:20.707Z,100016.13
2024-02-27T01:30:47.684Z,100005.03
2024-02-27T01:33:14.784Z,100010.16
2024-02-27T01:35:41.936Z,100017.94
2024-02-27T01:38:08.867Z,100011.81
2024-02-27T01:40:35.829Z,100022.69
2024-02-27T01:43:02.732Z,100023.25
2024-02-27T01:45:30.123Z,100030.22
2024-02-27T01:47:58.033Z,100032.66
2024-02-27T01:50:25.784Z,100032.63
2024-02-27T01:52:53.604Z,100031.09
2024-02-27T01:55:21.200Z,100042.53
2024-02-27T01:57:50.370Z,100047.00
2024-02-27T02:00:17.939Z,100041.09
2024-02-27T02:02:45.941Z,100045.22
2024-02-27T02:05:14.207Z,100041.97
2024-02-27T02:07:42.015Z,100040.97
2024-02-27T02:10:15.506Z,100034.44
2024-02-27T02:12:42.650Z,100033.41
2024-02-27T02:15:10.086Z,100028.28
2024-02-27T02:17:37.181Z,100022.75
2024-02-27T02:20:06.687Z,100015.78
2024-02-27T02:22:34.917Z,100013.34
2024-02-27T02:25:02.387Z,100011.50
2024-02-27T02:27:31.601Z,100018.22
2024-02-27T02:29:58.656Z,100021.31
2024-02-27T02:32:25.646Z,100021.28
2024-02-27T02:34:52.632Z,100018.84
2024-02-27T02:37:19.817Z,100018.19
2024-02-27T02:39:46.766Z,100016.16
2024-02-27T02:42:13.840Z,100022.91
2024-02-27T02:44:40.717Z,100021.06
2024-02-27T02:47:07.636Z,100030.91
2024-02-27T02:49:35.717Z,100026.81
2024-02-27T02:52:03.928Z,100030.50
2024-02-27T02:54:30.895Z,100040.53
2024-02-27T02:56:57.987Z,100034.19
2024-02-27T02:59:26.872Z,100042.34
2024-02-27T03:01:53.843Z,100041.50
2024-02-27T03:04:20.812Z,100049.31
2024-02-27T03:06:47.878Z,100044.63
2024-02-27T03:09:14.897Z,100059.97
2024-02-27T03:11:41.795Z,100063.22
2024-02-27T03:14:08.692Z,100074.06
2024-02-27T03:16:35.643Z,100070.16
2024-02-27T03:19:04.100Z,100065.44
2024-02-27T03:21:33.741Z,100068.75
2024-02-27T03:24:00.833Z,100063.66
2024-02-27T03:26:27.708Z,100064.69
2024-02-27T03:28:54.582Z,100070.22
2024-02-27T03:31:21.470Z,100073.31
2024-02-27T03:33:48.564Z,100082.13
2024-02-27T03:36:15.614Z,100089.50
2024-02-27T03:38:43.779Z,100090.72
2024-02-27T03:41:14.654Z,100096.59
2024-02-27T03:43:42.824Z,100097.81
2024-02-27T03:46:10.551Z,100096.19
2024-02-27T03:48:38.035Z,100099.91
2024-02-27T03:51:05.316Z,100099.69
2024-02-27T03:53:32.617Z,100109.09
2024-02-27T03:55:59.928Z,100095.00
2024-02-27T03:58:26.856Z,100098.28
2024-02-27T04:00:54.482Z,100104.22
2024-02-27T04:03:21.504Z,100100.69
2024-02-27T04:05:48.607Z,100104.63
2024-02-27T04:08:15.539Z,100113.44
2024-02-27T04:10:42.508Z,100111.59
2024-02-27T04:13:11.076Z,100112.19
2024-02-27T04:15:37.994Z,100118.94
2024-02-27T04:18:06.076Z,100117.03
2024-02-27T04:20:33.015Z,100118.25
2024-02-27T04:22:59.921Z,100124.03
2024-02-27T04:25:26.879Z,100122.47
2024-02-27T04:27:53.781Z,100123.59
2024-02-27T04:30:20.641Z,100120.88
2024-02-27T04:32:47.646Z,100124.88
2024-02-27T04:35:15.925Z,100125.78
2024-02-27T04:37:42.827Z,100116.72
2024-02-27T04:40:10.524Z,100126.09
2024-02-27T04:42:37.653Z,100121.97
2024-02-27T04:45:05.033Z,100125.53
2024-02-27T04:47:32.205Z,100141.03
2024-02-27T04:49:59.430Z,100143.88
2024-02-27T04:52:26.509Z,100144.63
2024-02-27T04:54:53.435Z,100143.34
2024-02-27T04:57:21.763Z,100145.00
2024-02-27T04:59:48.657Z,100151.94
2024-02-27T05:02:15.640Z,100157.00
2024-02-27T05:04:42.511Z,100161.66
2024-02-27T05:07:09.622Z,100158.41
2024-02-27T05:09:36.828Z,100158.59
2024-02-27T05:12:04.540Z,100155.56
2024-02-27T05:14:31.536Z,100154.47
2024-02-27T05:16:58.377Z,100154.00
2024-02-27T05:19:25.519Z,100154.56
2024-02-27T05:21:52.618Z,100168.66
2024-02-27T05:24:19.654Z,100164.81
2024-02-27T05:26:47.564Z,100174.72
2024-02-27T05:29:15.060Z,100171.41
2024-02-27T05:31:42.172Z,100179.38
2024-02-27T05:34:09.131Z,100179.47
2024-02-27T05:36:36.137Z,100188.28
2024-02-27T05:39:03.366Z,100183.31
2024-02-27T05:41:30.251Z,100196.75
2024-02-27T05:43:57.121Z,100190.34
2024-02-27T05:46:24.063Z,100203.25
2024-02-27T05:48:51.147Z,100206.19
2024-02-27T05:51:21.197Z,100204.88
2024-02-27T05:53:48.486Z,100206.75
2024-02-27T05:56:15.395Z,100203.72
2024-02-27T05:58:42.363Z,100201.25
2024-02-27T06:01:09.389Z,100200.97
2024-02-27T06:03:36.703Z,100200.13
2024-02-27T06:06:03.953Z,100197.66
2024-02-27T06:08:30.938Z,100206.28
2024-02-27T06:10:57.879Z,100206.09
2024-02-27T06:13:26.392Z,100212.94
2024-02-27T06:15:54.653Z,100213.88
2024-02-27T06:18:21.687Z,100215.69
2024-02-27T06:21:07.131Z,100212.28
2024-02-27T06:23:34.025Z,100222.53
2024-02-27T06:26:01.092Z,100217.25
2024-02-27T06:28:27.994Z,100218.78
2024-02-27T06:30:54.967Z,100217.94
2024-02-27T06:33:22.384Z,100226.00
2024-02-27T06:35:49.328Z,100223.00
2024-02-27T06:38:16.449Z,100220.59
2024-02-27T06:40:44.653Z,100223.34
2024-02-27T06:43:11.705Z,100224.19
2024-02-27T06:45:38.749Z,100217.03
2024-02-27T06:48:06.204Z,100220.88
2024-02-27T06:50:33.392Z,100211.16
2024-02-27T06:53:00.830Z,100214.09
2024-02-27T06:55:27.738Z,100205.72
2024-02-27T06:57:54.648Z,100217.22
2024-02-27T07:00:22.011Z,100212.41
2024-02-27T07:02:51.087Z,100227.16
2024-02-27T07:05:18.287Z,100232.19
2024-02-27T07:07:45.193Z,100238.13
2024-02-27T07:10:15.076Z,100244.91
2024-02-27T07:12:44.805Z,100251.31
2024-02-27T07:15:12.703Z,100247.56
2024-02-27T07:17:39.599Z,100248.75
2024-02-27T07:20:10.193Z,100248.28
2024-02-27T07:22:37.180Z,100259.00
2024-02-27T07:25:04.213Z,100257.16
2024-02-27T07:27:31.080Z,100268.84
2024-02-27T07:29:58.078Z,100249.75
2024-02-27T07:32:25.170Z,100258.50
2024-02-27T07:34:52.202Z,100269.41
2024-02-27T07:37:19.200Z,100262.34
2024-02-27T07:39:46.473Z,100270.88
2024-02-27T07:42:14.064Z,100280.97
2024-02-27T07:44:41.076Z,100280.19
2024-02-27T07:47:07.955Z,100281.25
2024-02-27T07:49:34.872Z,100288.22
2024-02-27T07:52:01.960Z,100284.25
2024-02-27T07:54:29.028Z,100283.63
2024-02-27T07:56:55.909Z,100282.91
2024-02-27T07:59:22.858Z,100281.91
2024-02-27T08:01:49.816Z,100285.84
2024-02-27T08:04:18.795Z,100294.91
2024-02-27T08:06:46.114Z,100294.44
2024-02-27T08:09:13.100Z,100295.97
2024-02-27T08:11:40.188Z,100302.28
2024-02-27T08:14:07.061Z,100300.16
2024-02-27T08:16:33.960Z,100310.34
2024-02-27T08:19:05.481Z,100316.38
2024-02-27T08:21:33.425Z,100324.81
2024-02-27T08:24:02.026Z,100321.75
2024-02-27T08:26:29.568Z,100326.09
2024-02-27T08:28:57.246Z,100325.28
2024-02-27T08:31:24.843Z,100317.69
2024-02-27T08:33:52.550Z,100317.88
2024-02-27T08:36:19.644Z,100320.25
2024-02-27T08:38:46.563Z,100316.50
2024-02-27T08:41:15.019Z,100318.50
2024-02-27T08:43:44.229Z,100335.19
2024-02-27T08:46:17.681Z,100336.97
2024-02-27T08:48:45.540Z,100341.56
2024-02-27T08:51:12.490Z,100346.94
2024-02-27T08:53:39.806Z,100350.34
2024-02-27T08:56:07.905Z,100344.47
2024-02-27T08:58:36.208Z,100358.78
2024-02-27T09:01:03.705Z,100360.22
2024-02-27T09:03:31.130Z,100366.28
2024-02-27T09:05:58.083Z,100363.19
2024-02-27T09:08:25.038Z,100365.41
2024-02-27T09:10:51.976Z,100366.78
2024-02-27T09:13:18.789Z,100368.50
2024-02-27T09:15:45.919Z,100373.91
2024-02-27T09:18:14.142Z,100375.75
2024-02-27T09:20:44.641Z,100391.13
2024-02-27T09:23:11.850Z,100387.31
2024-02-27T09:25:39.488Z,100395.00
2024-02-27T09:28:06.653Z,100398.66
2024-02-27T09:30:33.643Z,100405.16
2024-02-27T09:33:01.055Z,100410.47
2024-02-27T09:35:28.028Z,100407.28
2024-02-27T09:37:57.809Z,100406.09
2024-02-27T09:40:26.179Z,100415.69
2024-02-27T09:42:57.799Z,100408.53
2024-02-27T09:45:27.350Z,100426.84
2024-02-27T09:47:59.146Z,100429.44
2024-02-27T09:50:29.105Z,100432.75
2024-02-27T09:52:57.422Z,100429.16
2024-02-27T09:55:26.891Z,100437.91
2024-02-27T09:57:54.509Z,100447.50
2024-02-27T10:00:22.412Z,100449.81
2024-02-27T10:02:51.174Z,100448.69
2024-02-27T10:05:23.143Z,100453.56
2024-02-27T10:07:51.649Z,100448.81
2024-02-27T10:10:19.704Z,100458.44
2024-02-27T10:12:47.666Z,100456.88
2024-02-27T10:15:16.049Z,100452.94
2024-02-27T10:17:46.811Z,100451.34
2024-02-27T10:20:18.875Z,100452.28
2024-02-27T10:22:46.201Z,100438.69
2024-02-27T10:25:16.104Z,100430.16
2024-02-27T10:27:44.011Z,100434.78
2024-02-27T10:30:13.044Z,100444.16
2024-02-27T10:32:43.954Z,100437.25
2024-02-27T10:35:12.752Z,100440.88
2024-02-27T10:37:40.290Z,100438.56
2024-02-27T10:40:09.106Z,100446.09
2024-02-27T10:42:38.781Z,100451.75
2024-02-27T10:45:07.035Z,100440.81
2024-02-27T10:47:35.061Z,100446.00
2024-02-27T10:50:07.280Z,100446.66
2024-02-27T10:52:36.637Z,100449.44
2024-02-27T10:55:04.495Z,100448.03
2024-02-27T10:57:34.663Z,100456.75
2024-02-27T11:00:01.794Z,100445.53
2024-02-27T11:02:30.432Z,100438.97
2024-02-27T11:05:01.173Z,100436.75
2024-02-27T11:07:29.637Z,100437.16
2024-02-27T11:09:59.585Z,100429.13
2024-02-27T11:12:30.747Z,100432.81
2024-02-27T11:15:05.613Z,100431.16
2024-02-27T11:17:39.508Z,100426.66
2024-02-27T11:20:08.477Z,100436.88
2024-02-27T11:22:36.668Z,100429.69
2024-02-27T11:25:05.104Z,100437.50
2024-02-27T11:27:34.005Z,100430.66
2024-02-27T11:30:02.717Z,100418.13
2024-02-27T11:32:35.157Z,100417.69
2024-02-27T11:35:04.276Z,100422.31
2024-02-27T11:37:31.202Z,100419.16
2024-02-27T11:39:59.307Z,100409.13
2024-02-27T11:42:38.621Z,100411.31
2024-02-27T11:45:10.186Z,100412.34
2024-02-27T11:47:43.610Z,100407.47
2024-02-27T11:50:14.480Z,100406.72
2024-02-27T11:52:46.477Z,100402.25
2024-02-27T11:55:13.895Z,100403.75
2024-02-27T11:57:41.191Z,100395.03
2024-02-27T12:00:17.584Z,100391.94
2024-02-27T12:02:50.135Z,100389.53
2024-02-27T12:05:19.607Z,100387.22
2024-02-27T12:07:46.775Z,100383.31
2024-02-27T12:10:15.311Z,100397.25
2024-02-27T12:12:42.446Z,100384.09
2024-02-27T12:15:11.147Z,100384.34
2024-02-27T12:17:38.637Z,100389.19
2024-02-27T12:20:12.363Z,100390.03
2024-02-27T12:22:46.655Z,100387.84
2024-02-27T12:25:16.471Z,100385.38
2024-02-27T12:27:47.730Z,100374.44
2024-02-27T12:30:15.085Z,100374.22
2024-02-27T12:32:46.444Z,100373.66
2024-02-27T12:35:15.183Z,100379.13
2024-02-27T12:37:49.976Z,100374.34
2024-02-27T12:40:20.415Z,100383.72
2024-02-27T12:42:51.783Z,100375.19
2024-02-27T12:45:19.715Z,100374.03
2024-02-27T12:47:51.836Z,100367.84
2024-02-27T12:50:25.951Z,100372.88
2024-02-27T12:53:02.107Z,100368.41
2024-02-27T12:55:37.856Z,100369.13
2024-02-27T12:58:04.732Z,100367.50
2024-02-27T13:00:33.321Z,100365.28
2024-02-27T13:03:00.644Z,100358.63
2024-02-27T13:05:28.197Z,100355.69
2024-02-27T13:07:56.909Z,100347.50
2024-02-27T13:10:24.479Z,100355.44
2024-02-27T13:13:14.493Z,100350.41
2024-02-27T13:15:47.491Z,100351.91
2024-02-27T13:18:15.191Z,100357.53
2024-02-27T13:20:43.158Z,100351.78
2024-02-27T13:23:20.924Z,100353.16
2024-02-27T13:25:54.142Z,100356.31
2024-02-27T13:28:21.195Z,100343.25
2024-02-27T13:30:48.158Z,100351.88
2024-02-27T13:33:16.265Z,100347.47
2024-02-27T13:35:43.340Z,100352.00
2024-02-27T13:38:10.203Z,100344.69
2024-02-27T13:40:37.229Z,100340.00
2024-02-27T13:43:04.356Z,100338.75
2024-02-27T13:45:31.549Z,100334.13
2024-02-27T13:47:58.720Z,100338.00
2024-02-27T13:50:26.027Z,100337.75
2024-02-27T13:52:53.068Z,100334.59
2024-02-27T13:55:20.001Z,100326.94
2024-02-27T13:57:46.990Z,100324.72
2024-02-27T14:00:14.444Z,100329.84
2024-02-27T14:02:41.689Z,100326.25
2024-02-27T14:05:08.736Z,100314.94
2024-02-27T14:07:40.939Z,100310.78
2024-02-27T14:10:09.338Z,100326.28
2024-02-27T14:12:36.241Z,100325.13
2024-02-27T14:15:04.245Z,100323.38
2024-02-27T14:17:34.145Z,100317.22
2024-02-27T14:20:01.933Z,100316.38
2024-02-27T14:22:29.117Z,100300.06
2024-02-27T14:24:56.645Z,100303.44
2024-02-27T14:27:23.742Z,100301.94
2024-02-27T14:29:50.811Z,100306.81
2024-02-27T14:32:17.984Z,100313.13
2024-02-27T14:34:48.730Z,100317.91
2024-02-27T14:37:15.719Z,100314.97
2024-02-27T14:39:42.612Z,100307.84
2024-02-27T14:42:09.599Z,100310.09
2024-02-27T14:44:36.701Z,100309.16
2024-02-27T14:47:07.179Z,100301.69
2024-02-27T14:49:34.159Z,100296.91
2024-02-27T14:52:03.642Z,100307.75
2024-02-27T14:54:30.501Z,100299.94
2024-02-27T14:56:57.352Z,100300.28
2024-02-27T14:59:24.198Z,100307.06
2024-02-27T15:01:57.329Z,100317.09
2024-02-27T15:04:27.668Z,100314.41
2024-02-27T15:06:54.774Z,100318.84
2024-02-27T15:09:24.686Z,100326.38
2024-02-27T15:11:51.642Z,100322.66
2024-02-27T15:14:18.537Z,100320.22
2024-02-27T15:16:45.336Z,100320.88
2024-02-27T15:19:12.365Z,100324.41
2024-02-27T15:21:40.600Z,100316.59
2024-02-27T15:24:08.095Z,100307.72
2024-02-27T15:26:36.778Z,100321.66
2024-02-27T15:29:04.102Z,100348.50
2024-02-27T15:31:31.057Z,100352.09
2024-02-27T15:33:58.046Z,100352.78
2024-02-27T15:36:25.073Z,100349.88
2024-02-27T15:38:51.943Z,100341.16
2024-02-27T15:41:18.866Z,100343.97
2024-02-27T15:43:46.322Z,100352.09
2024-02-27T15:46:13.182Z,100369.66
2024-02-27T15:48:40.385Z,100374.78
2024-02-27T15:51:11.746Z,100376.25
2024-02-27T15:53:39.929Z,100392.25
2024-02-27T15:56:10.867Z,100399.94
2024-02-27T15:58:38.812Z,100393.59
2024-02-27T16:01:06.282Z,100377.13
2024-02-27T16:03:58.353Z,100369.53
2024-02-27T16:06:41.119Z,100379.16
2024-02-27T16:09:08.030Z,100388.63
2024-02-27T16:11:34.931Z,100391.91
2024-02-27T16:14:01.744Z,100391.81
2024-02-27T16:16:28.578Z,100406.28
2024-02-27T16:18:57.295Z,100415.53
2024-02-27T16:21:39.697Z,100425.25
2024-02-27T16:24:09.161Z,100419.97
2024-02-27T16:26:37.101Z,100407.84
2024-02-27T16:29:06.337Z,100417.91
2024-02-27T16:31:36.322Z,100429.66
2024-02-27T16:34:03.293Z,100431.31
2024-02-27T16:36:30.376Z,100430.56
2024-02-27T16:38:57.394Z,100423.72
2024-02-27T16:41:24.273Z,100420.88
2024-02-27T16:43:51.125Z,100423.16
2024-02-27T16:46:18.735Z,100425.59
2024-02-27T16:48:45.696Z,100429.13
2024-02-27T16:51:12.733Z,100423.56
2024-02-27T16:53:39.721Z,100425.50
2024-02-27T16:56:07.010Z,100430.03
2024-02-27T16:58:34.622Z,100433.13
2024-02-27T17:01:02.273Z,100449.69
2024-02-27T17:03:30.010Z,100462.31
2024-02-27T17:06:01.422Z,100462.31
2024-02-27T17:08:28.327Z,100456.78
2024-02-27T17:10:56.398Z,100448.53
2024-02-27T17:13:23.253Z,100438.06
2024-02-27T17:15:50.188Z,100438.53
2024-02-27T17:18:17.429Z,100455.72
2024-02-27T17:20:44.411Z,100461.41
2024-02-27T17:23:17.265Z,100457.13
2024-02-27T17:25:49.122Z,100467.63
2024-02-27T17:28:15.933Z,100465.97
2024-02-27T17:30:42.989Z,100485.56
2024-02-27T17:33:11.428Z,100480.66
2024-02-27T17:35:38.468Z,100476.75
2024-02-27T17:38:05.316Z,100483.97
2024-02-27T17:40:32.265Z,100488.09
2024-02-27T17:42:59.159Z,100489.31
2024-02-27T17:45:26.021Z,100489.72
2024-02-27T17:47:53.020Z,100486.03
2024-02-27T17:50:19.866Z,100494.25
2024-02-27T17:52:46.709Z,100490.56
2024-02-27T17:55:13.769Z,100490.34
2024-02-27T17:57:41.575Z,100499.63
2024-02-27T18:00:09.087Z,100485.41
2024-02-27T18:02:35.919Z,100484.16
2024-02-27T18:05:02.737Z,100485.59
2024-02-27T18:07:29.660Z,100482.94
2024-02-27T18:09:56.612Z,100486.03
2024-02-27T18:12:23.513Z,100484.78
2024-02-27T18:14:50.395Z,100493.63
2024-02-27T18:17:17.191Z,100490.16
2024-02-27T18:19:44.824Z,100490.16
2024-02-27T18:22:11.795Z,100496.09
2024-02-27T18:24:38.680Z,100494.25
2024-02-27T18:27:06.579Z,100511.34
2024-02-27T18:29:35.140Z,100514.03
2024-02-27T18:32:02.122Z,100514.63
2024-02-27T18:34:29.564Z,100525.97
2024-02-27T18:36:56.445Z,100527.19
2024-02-27T18:39:24.362Z,100534.81
2024-02-27T18:41:51.217Z,100541.19
2024-02-27T18:44:18.014Z,100536.47
2024-02-27T18:46:44.896Z,100539.56
2024-02-27T18:49:11.791Z,100540.56
2024-02-27T18:51:41.845Z,100532.53
2024-02-27T18:54:09.225Z,100539.94
2024-02-27T18:56:38.132Z,100541.38
2024-02-27T18:59:05.124Z,100536.25
2024-02-27T19:01:33.223Z,100541.19
2024-02-27T19:04:00.102Z,100539.13
2024-02-27T19:06:27.346Z,100545.69
2024-02-27T19:08:54.403Z,100539.09
2024-02-27T19:11:21.754Z,100542.59
2024-02-27T19:13:48.864Z,100541.16
2024-02-27T19:16:17.132Z,100537.22
2024-02-27T19:18:44.116Z,100544.47
2024-02-27T19:21:11.030Z,100541.38
2024-02-27T19:23:37.928Z,100538.91
2024-02-27T19:26:04.933Z,100542.38
2024-02-27T19:28:34.517Z,100536.84
2024-02-27T19:31:01.398Z,100547.56
2024-02-27T19:33:28.246Z,100549.19
2024-02-27T19:35:55.179Z,100557.22
2024-02-27T19:38:22.094Z,100563.63
2024-02-27T19:40:48.971Z,100566.28
2024-02-27T19:43:16.337Z,100562.38
2024-02-27T19:45:44.666Z,100559.28
2024-02-27T19:48:11.780Z,100574.31
2024-02-27T19:50:38.685Z,100580.28
2024-02-27T19:53:07.515Z,100586.06
2024-02-27T19:55:34.664Z,100571.22
2024-02-27T19:58:01.519Z,100578.66
2024-02-27T20:00:29.317Z,100580.69
2024-02-27T20:02:56.251Z,100586.06
2024-02-27T20:05:23.171Z,100581.50
2024-02-27T20:07:50.854Z,100575.31
2024-02-27T20:10:18.113Z,100579.44
2024-02-27T20:12:45.123Z,100587.28
2024-02-27T20:15:12.226Z,100594.28
2024-02-27T20:17:39.111Z,100597.78
2024-02-27T20:20:06.704Z,100608.25
2024-02-27T20:22:33.540Z,100629.03
2024-02-27T20:25:00.970Z,100627.19
2024-02-27T20:27:28.385Z,100639.09
2024-02-27T20:29:59.203Z,100645.25
2024-02-27T20:32:27.937Z,100649.38
2024-02-27T20:34:55.143Z,100648.34
2024-02-27T20:37:22.021Z,100654.09
2024-02-27T20:39:49.294Z,100660.25
2024-02-27T20:42:16.336Z,100672.59
2024-02-27T20:44:43.309Z,100679.78
2024-02-27T20:47:10.589Z,100673.22
2024-02-27T20:49:37.435Z,100676.91
2024-02-27T20:52:04.433Z,100676.28
2024-02-27T20:54:32.092Z,100686.34
2024-02-27T20:56:59.719Z,100690.88
2024-02-27T20:59:26.699Z,100685.97
2024-02-27T21:01:53.521Z,100690.66
2024-02-27T21:04:20.397Z,100688.19
2024-02-27T21:06:47.802Z,100690.41
2024-02-27T21:09:14.754Z,100689.81
2024-02-27T21:11:41.655Z,100690.66
2024-02-27T21:14:08.779Z,100693.31
2024-02-27T21:16:35.637Z,100686.31
2024-02-27T21:19:02.483Z,100688.38
2024-02-27T21:21:29.426Z,100696.16
2024-02-27T21:23:56.953Z,100699.25
2024-02-27T21:26:25.132Z,100704.81
2024-02-27T21:28:51.983Z,100705.44
2024-02-27T21:31:18.813Z,100695.19
2024-02-27T21:33:45.805Z,100704.66
2024-02-27T21:36:12.979Z,100705.25
2024-02-27T21:38:39.985Z,100702.38
2024-02-27T21:41:06.914Z,100708.56
2024-02-27T21:43:33.901Z,100723.16
2024-02-27T21:46:02.545Z,100722.97
2024-02-27T21:48:29.614Z,100720.91
2024-02-27T21:50:56.504Z,100717.19
2024-02-27T21:53:23.392Z,100726.66
2024-02-27T21:55:50.322Z,100714.31
2024-02-27T21:58:17.183Z,100724.63
2024-02-27T22:00:44.461Z,100717.22
2024-02-27T22:03:13.340Z,100723.41
2024-02-27T22:05:40.272Z,100722.56
2024-02-27T22:08:07.513Z,100722.56
2024-02-27T22:10:34.438Z,100724.84
2024-02-27T22:13:01.461Z,100722.16
2024-02-27T22:15:30.067Z,100728.16
2024-02-27T22:17:57.118Z,100728.75
2024-02-27T22:20:24.083Z,100720.94
2024-02-27T22:22:51.620Z,100729.59
2024-02-27T22:25:18.608Z,100723.63
2024-02-27T22:27:45.616Z,100717.88
2024-02-27T22:30:15.966Z,100718.47
2024-02-27T22:32:43.570Z,100721.56
2024-02-27T22:35:10.715Z,100724.22
2024-02-27T22:37:37.622Z,100721.34
2024-02-27T22:40:05.758Z,100720.13
2024-02-27T22:42:32.747Z,100718.28
2024-02-27T22:44:59.738Z,100719.72
2024-02-27T22:47:26.681Z,100727.53
2024-02-27T22:49:53.589Z,100727.34
2024-02-27T22:52:20.529Z,100729.81
2024-02-27T22:54:47.570Z,100725.88
2024-02-27T22:57:14.593Z,100723.22
2024-02-27T22:59:41.455Z,100718.91
2024-02-27T23:02:08.642Z,100731.22
2024-02-27T23:04:35.526Z,100727.75
2024-02-27T23:07:02.569Z,100742.78
2024-02-27T23:09:30.667Z,100743.38
2024-02-27T23:11:57.671Z,100744.44
2024-02-27T23:14:24.603Z,100739.06
2024-02-27T23:16:51.463Z,100745.44
2024-02-27T23:19:18.361Z,100755.28
2024-02-27T23:21:46.897Z,100750.16
2024-02-27T23:24:15.601Z,100746.25
2024-02-27T23:26:42.622Z,100755.50
2024-02-27T23:29:09.816Z,100757.56
2024-02-27T23:31:36.933Z,100755.91
2024-02-27T23:34:05.991Z,100772.97
2024-02-27T23:36:33.140Z,100771.53
2024-02-27T23:39:00.074Z,100772.34
2024-02-27T23:41:26.951Z,100774.00
2024-02-27T23:43:53.845Z,100774.63
2024-02-27T23:46:22.150Z,100765.56
2024-02-27T23:48:49.801Z,100774.78
2024-02-27T23:51:16.812Z,100776.69
2024-02-27T23:53:43.772Z,100781.63
2024-02-27T23:56:10.625Z,100781.63
2024-02-27T23:58:37.741Z,100783.28
